Querinda Park, New Mexico
Current Conditions -  °F | °C
As of 11:15 PM on Tuesday 21 Oct 2014 (Local Time) from KAXX Reporting Station
Broken Clouds Broken Clouds  
Wind Chill:   Ceiling: 3500
Heat Index:   Visibility: 10mi
Dew Point:   Wind: 9mph
Humidity: 89%   Direction: 150°SSE
Pressure: 30.22"   Gusts: NA
Location:  36.7124°N, 105.403°W
Report Text: KAXX 220515Z AUTO 15008KT 10SM BKN035 BKN040 06/04 A3022 RMK AO2 T00590042
Loading
Personal Weather Stations






























Interactive Weather Map
Tropical Storm Tracking
New forecast layout! Learn more

10-Day Weather Forecast

Advertisements
Track Severe Weather on mobile